Arviat Airport
CYEK : now visible

Airfield :











YOU CAN JOIN US ON...

 
LOGIN :

Register | Disclaimer

   EN    FR    IT 

 









Legend :    VFR   Marginal VFR   IFR   Intensive IFR   Very Intensive IFR
Visi :
Ceiling :
>= 8 km
>= 3000ft
5 to 8 km
1000 to 3000 ft
1500m to 5 km
500 to 1000 ft
800 to 1500m
200 to 500 ft
< 800m
< 200 ft
Symbols :   Thunderstorms  Fog  Heavy snow  Heavy precipitations  Wind > 20 kt






- Airport Elevation : 32 ft
- IATA code : YEK


CYEK - Arviat

CURRENT METAR :
  • 070049Z AUTO 06006KT 9SM -SN CLR M14/M16 A3022 RMK SLP237

EXPIRED METARs :
  • 070000Z AUTO 07003KT 9SM CLR M13/M14 A3023 RMK SLP241
  • 062300Z AUTO 05008KT 9SM CLR M11/M12 A3024 RMK SLP245
  • 062200Z 06008KT 15SM SKC M11/M12 A3025 RMK AFT 18UTC/S0.2MM/LAST STFD OBS/NXT 071200Z SLP248

TAF TAF CYEK
Valid from the 07 at 00:00 until the 07 at 12:00 UTC


062338Z 0700/0712 07007KT P6SM FEW005
BECMG 0707/0709 10012KT RMK NXT FCST BY 070600Z



MET'MAP, your aeronautical weather chart ! - Copyright ORBIFLY December 2007 - Disclaimer

ORBIFLY MET'MAP TEAM :

Programming & Development : Alexandra Zaïnal
Concept & original design : Baudouin d'Aumeries
Assistance for programming : Marc-Olivier Méhu
Technical & hardware support : Manuel Goepfert

Contact : metmap@orbifly.com




SOURCES & CREDITS :

   NOAA       Earth
Advisory